Normand Skude — LNVA — position and weather

sailwx.info

Track history (hours):
 
Tides and Currents Weather Stations Pressure Air Temp Water Temp Dewpoint Dewpoint Depression Visibility Wind Speed Wind Dir Waves Ship Positions

Normand Skude

Last reported at 2017-Dec-09 21:45 UTC. Time now 2017-Dec-13 07:08 UTC.
Position N 59°05' E 004°45'.

Length 87 m; draft 5.8 m.

Type: Cargo ship. MMSI: 257982000.

Date/timePositionNaut miles runAvg speedWind from/ knotsBaromVisibWave heightAir tempDewpointWater temp
2017-Dec-09 21:45N 59°05' E 004°45'3 7.7
2017-Dec-09 21:25N 59°04' E 004°50'3 7.6
2017-Dec-09 21:00N 59°04' E 004°56'4 8.3
2017-Dec-09 20:30N 59°04' E 005°04'4 8.3
2017-Dec-09 20:00N 59°04' E 005°12'5 8.9
2017-Dec-09 19:30N 59°06' E 005°20'5 9.3
2017-Dec-09 19:00N 59°07' E 005°29'510.1
2017-Dec-09 18:30N 59°03' E 005°35'4 7.6
2017-Dec-09 18:00N 58°60' E 005°40'0 0.0
2017-Dec-09 17:28N 58°60' E 005°40'0 0.0
2017-Dec-09 16:58N 58°60' E 005°40'0 0.0
2017-Dec-09 16:28N 58°60' E 005°40'0 0.0
2017-Dec-09 15:58N 58°60' E 005°40'0 0.0
2017-Dec-09 15:28N 58°60' E 005°40'0 0.0
2017-Dec-09 14:58N 58°60' E 005°40'0 0.0
2017-Dec-09 14:28N 58°60' E 005°40'0 0.0
2017-Dec-09 13:58N 58°60' E 005°40'0 0.0
2017-Dec-09 13:28N 58°60' E 005°40'0 0.0
2017-Dec-09 12:58N 58°60' E 005°40'0 0.0
2017-Dec-09 12:28N 58°60' E 005°40'0 0.0
2017-Dec-09 11:58N 58°60' E 005°40'0 0.0
2017-Dec-09 11:28N 58°60' E 005°40'0 0.0
2017-Dec-09 10:58N 58°60' E 005°40'0 0.0
2017-Dec-09 10:28N 58°60' E 005°40'0 0.0
2017-Dec-09 09:58N 58°60' E 005°40'0 0.0
2017-Dec-09 09:28N 58°60' E 005°40'0 0.0
2017-Dec-09 08:58N 58°60' E 005°40'0 0.0
2017-Dec-09 08:28N 58°60' E 005°40'0 0.0
2017-Dec-09 07:58N 58°60' E 005°40'0 0.0
2017-Dec-09 07:28N 58°60' E 005°40'0 0.0
2017-Dec-09 06:58N 58°60' E 005°40'0 0.0
2017-Dec-09 06:28N 58°60' E 005°40'0 0.0
2017-Dec-09 05:58N 58°60' E 005°40'0 0.0
2017-Dec-09 05:28N 58°60' E 005°40'0 0.0
2017-Dec-09 04:58N 58°60' E 005°40'0 0.0
2017-Dec-09 04:28N 58°60' E 005°40'0 0.0
2017-Dec-09 03:58N 58°60' E 005°40'0 0.0
2017-Dec-09 03:28N 58°60' E 005°40'0 0.0
2017-Dec-09 02:58N 58°60' E 005°40'0 0.0
2017-Dec-09 02:28N 58°60' E 005°40'0 0.0
2017-Dec-09 01:58N 58°60' E 005°40'0 0.0
2017-Dec-09 01:28N 58°60' E 005°40'0 0.0
2017-Dec-09 00:58N 58°60' E 005°40'0 0.0
2017-Dec-09 00:28N 58°60' E 005°40'0 0.0
2017-Dec-08 23:58N 58°60' E 005°40'0 0.0
2017-Dec-08 23:28N 58°60' E 005°40'0 0.0
2017-Dec-08 22:58N 58°60' E 005°40'0 0.0
2017-Dec-08 22:28N 58°60' E 005°40'0 0.0
2017-Dec-08 21:58N 58°60' E 005°40'0 0.0
2017-Dec-08 21:28N 58°60' E 005°40'0 0.0
2017-Dec-08 20:58N 58°60' E 005°40'0 0.0
2017-Dec-08 20:28N 58°60' E 005°40'0 0.0
2017-Dec-08 19:58N 58°60' E 005°40'0 0.0
2017-Dec-08 19:28N 58°60' E 005°40'0 0.0
2017-Dec-08 18:58N 58°60' E 005°40'0 0.0
2017-Dec-08 18:28N 58°60' E 005°40'0 0.0
2017-Dec-08 17:58N 58°60' E 005°40'0 0.0
2017-Dec-08 17:28N 58°60' E 005°40'0 0.0
2017-Dec-08 16:58N 58°60' E 005°40'0 0.0
2017-Dec-08 16:28N 58°60' E 005°40'0 0.0
2017-Dec-08 15:58N 58°60' E 005°40'0 0.0
2017-Dec-08 15:28N 58°60' E 005°40'0 0.0
2017-Dec-08 14:58N 58°60' E 005°40'0 0.0
2017-Dec-08 14:28N 58°60' E 005°40'0 0.0
2017-Dec-08 13:58N 58°60' E 005°40'0 0.0
2017-Dec-08 13:28N 58°60' E 005°40'0 0.0
2017-Dec-08 12:58N 58°60' E 005°40'0 0.0
2017-Dec-08 12:28N 58°60' E 005°40'0 0.0
2017-Dec-08 11:58N 58°60' E 005°40'0 0.0
2017-Dec-08 11:28N 58°60' E 005°40'0 0.0
2017-Dec-08 10:58N 58°60' E 005°40'0 0.0
2017-Dec-08 10:28N 58°60' E 005°40'0 0.0
2017-Dec-08 09:58N 58°60' E 005°40'0 0.0
2017-Dec-08 09:28N 58°60' E 005°40'0 0.0
2017-Dec-08 08:58N 58°60' E 005°40'0 0.0
2017-Dec-08 08:28N 58°60' E 005°40'0 0.0
2017-Dec-08 07:58N 58°60' E 005°40'0 0.0
2017-Dec-08 07:28N 58°60' E 005°40'0 0.0
2017-Dec-08 06:58N 58°60' E 005°40'0 0.0
2017-Dec-08 06:28N 58°60' E 005°40'0 0.0
2017-Dec-08 05:58N 58°60' E 005°40'0 0.0
2017-Dec-08 05:28N 58°60' E 005°40'0 0.0
2017-Dec-08 04:58N 58°60' E 005°40'0 0.0
2017-Dec-08 04:28N 58°60' E 005°40'0 0.0
2017-Dec-08 03:58N 58°60' E 005°40'0 0.0
2017-Dec-08 03:28N 58°60' E 005°40'0 0.0
2017-Dec-08 02:58N 58°60' E 005°40'0 0.0
2017-Dec-08 02:28N 58°60' E 005°40'0 0.0
2017-Dec-08 01:58N 58°60' E 005°40'0 0.0
2017-Dec-08 01:28N 58°60' E 005°40'0 0.0
2017-Dec-08 00:58N 58°60' E 005°40'0 0.0
2017-Dec-08 00:28N 58°60' E 005°40'0 0.0
2017-Dec-07 23:58N 58°60' E 005°40'0 0.0
2017-Dec-07 23:28N 58°60' E 005°40'0 0.0
2017-Dec-07 22:58N 58°60' E 005°40'0 0.0
2017-Dec-07 22:28N 58°60' E 005°40'0 0.0
2017-Dec-07 21:58N 58°60' E 005°40'0 0.0
2017-Dec-07 21:28N 58°60' E 005°40'0 0.0
2017-Dec-07 20:58N 58°60' E 005°40'0 0.0
2017-Dec-07 20:28N 58°60' E 005°40'0 0.0
2017-Dec-07 19:58N 58°60' E 005°40'0 0.0
2017-Dec-07 19:28N 58°60' E 005°40'0 0.0
2017-Dec-07 18:58N 58°60' E 005°40'0 0.0
2017-Dec-07 18:28N 58°60' E 005°40'0 0.0
2017-Dec-07 17:58N 58°60' E 005°40'0 0.0
2017-Dec-07 17:28N 58°60' E 005°40'0 0.0
2017-Dec-07 16:58N 58°60' E 005°40'0 0.0
2017-Dec-07 16:28N 58°60' E 005°40'0 0.0
2017-Dec-07 15:58N 58°60' E 005°40'0 0.0
2017-Dec-07 15:28N 58°60' E 005°40'0 0.0
2017-Dec-07 14:58N 58°60' E 005°40'0 0.0
2017-Dec-07 14:28N 58°60' E 005°40'0 0.0
2017-Dec-07 13:58N 58°60' E 005°40'0 0.0
2017-Dec-07 13:28N 58°60' E 005°40'0 0.0
2017-Dec-07 12:58N 58°60' E 005°40'0 0.0
2017-Dec-07 12:28N 58°60' E 005°40'0 0.0
2017-Dec-07 11:58N 58°60' E 005°40'0 0.0
2017-Dec-07 11:28N 58°60' E 005°40'0 0.0
2017-Dec-07 10:58N 58°60' E 005°40'0 0.0
2017-Dec-07 10:28N 58°60' E 005°40'0 0.0
2017-Dec-07 09:58N 58°60' E 005°40'0 0.0
2017-Dec-07 09:28N 58°60' E 005°40'0 0.0
2017-Dec-07 08:58N 58°60' E 005°40'0 0.0
2017-Dec-07 08:28N 58°60' E 005°40'0 0.0
2017-Dec-07 07:58N 58°60' E 005°40'0 0.0
2017-Dec-07 07:30N 58°60' E 005°40'2 4.1
2017-Dec-07 07:00N 59°02' E 005°38'3 6.4
2017-Dec-07 06:30N 59°04' E 005°33'3 5.3
2017-Dec-07 06:00N 59°06' E 005°30'3 6.2
2017-Dec-07 05:30N 59°05' E 005°24'3 6.2
2017-Dec-07 05:00N 59°04' E 005°19'3 6.5
2017-Dec-07 04:31N 59°03' E 005°13'4 7.7
2017-Dec-07 04:00N 59°03' E 005°05'4 8.1
2017-Dec-07 03:30N 59°03' E 004°58'4 8.1
2017-Dec-07 02:59N 59°04' E 004°50'  
2017-Dec-04 10:30N 58°60' E 005°40'0 0.0
2017-Dec-04 10:00N 58°60' E 005°40'0 0.0
2017-Dec-04 09:30N 58°60' E 005°40'0 0.0
2017-Dec-04 09:00N 58°60' E 005°40'0 0.0
2017-Dec-04 08:30N 58°60' E 005°40'0 0.0
2017-Dec-04 08:00N 58°60' E 005°40'0 0.0
2017-Dec-04 07:30N 58°60' E 005°40'0 0.0
2017-Dec-04 07:00N 58°60' E 005°40'0 0.0
2017-Dec-04 06:30N 58°60' E 005°40'0 0.0
2017-Dec-04 06:00N 58°60' E 005°40'0 0.0
2017-Dec-04 05:30N 58°60' E 005°40'0 0.0
2017-Dec-04 05:00N 58°60' E 005°40'0 0.0
2017-Dec-04 04:30N 58°60' E 005°40'0 0.0
2017-Dec-04 04:00N 58°60' E 005°40'0 0.0
2017-Dec-04 03:30N 58°60' E 005°40'0 0.0
2017-Dec-04 03:00N 58°60' E 005°40'0 0.0
2017-Dec-04 02:30N 58°60' E 005°40'0 0.0
2017-Dec-04 02:00N 58°60' E 005°40'0 0.0
2017-Dec-04 01:30N 58°60' E 005°40'0 0.0
2017-Dec-04 01:00N 58°60' E 005°40'0 0.0
2017-Dec-04 00:30N 58°60' E 005°40'0 0.0
2017-Dec-04 00:00N 58°60' E 005°40'0 0.0
2017-Dec-03 23:30N 58°60' E 005°40'0 0.0
2017-Dec-03 23:00N 58°60' E 005°40'0 0.0
2017-Dec-03 22:30N 58°60' E 005°40'0 0.0
2017-Dec-03 22:00N 58°60' E 005°40'0 0.0
2017-Dec-03 21:30N 58°60' E 005°40'0 0.0
2017-Dec-03 21:00N 58°60' E 005°40'0 0.0
2017-Dec-03 20:30N 58°60' E 005°40'0 0.0
2017-Dec-03 20:00N 58°60' E 005°40'0 0.0
2017-Dec-03 19:30N 58°60' E 005°40'0 0.0
2017-Dec-03 19:00N 58°60' E 005°40'0 0.0
2017-Dec-03 18:30N 58°60' E 005°40'0 0.0
2017-Dec-03 18:00N 58°60' E 005°40'0 0.0
2017-Dec-03 17:30N 58°60' E 005°40'0 0.0
2017-Dec-03 17:00N 58°60' E 005°40'0 0.0
2017-Dec-03 16:30N 58°60' E 005°40'0 0.0
2017-Dec-03 16:00N 58°60' E 005°40'0 0.0
2017-Dec-03 15:30N 58°60' E 005°40'0 0.0
2017-Dec-03 15:00N 58°60' E 005°40'0 0.0
2017-Dec-03 14:30N 58°60' E 005°40'0 0.0
2017-Dec-03 13:57N 58°60' E 005°40'0 0.0
2017-Dec-03 13:30N 58°60' E 005°40'0 0.0
2017-Dec-03 13:00N 58°60' E 005°40'0 0.0
2017-Dec-03 12:30N 58°60' E 005°40'0 0.0
2017-Dec-03 12:00N 58°60' E 005°40'0 0.0
2017-Dec-03 11:30N 58°60' E 005°40'0 0.0
2017-Dec-03 11:00N 58°60' E 005°40'0 0.0
2017-Dec-03 10:30N 58°60' E 005°40'0 0.0
2017-Dec-03 10:00N 58°60' E 005°40'0 0.0
2017-Dec-03 09:30N 58°60' E 005°40'0 0.0
2017-Dec-03 09:00N 58°60' E 005°40'0 0.0
2017-Dec-03 08:30N 58°60' E 005°40'0 0.0
2017-Dec-03 08:00N 58°60' E 005°40'0 0.0
2017-Dec-03 07:30N 58°60' E 005°40'0 0.0
2017-Dec-03 07:00N 58°60' E 005°40'0 0.0
2017-Dec-03 06:30N 58°60' E 005°40'0 0.0
2017-Dec-03 06:00N 58°60' E 005°40'0 0.0
2017-Dec-03 05:30N 58°60' E 005°40'0 0.0
2017-Dec-03 05:00N 58°60' E 005°40'0 0.0
2017-Dec-03 04:30N 58°60' E 005°40'0 0.0
2017-Dec-03 04:00N 58°60' E 005°40'0 0.0
2017-Dec-03 03:30N 58°60' E 005°40'0 0.0
2017-Dec-03 03:00N 58°60' E 005°40'0 0.0
2017-Dec-03 02:30N 58°60' E 005°40'0 0.0
2017-Dec-03 02:00N 58°60' E 005°40'0 0.0
2017-Dec-03 01:30N 58°60' E 005°40'0 0.0
2017-Dec-03 01:00N 58°60' E 005°40'0 0.0
2017-Dec-03 00:30N 58°60' E 005°40'0 0.0
2017-Dec-03 00:00N 58°60' E 005°40'0 0.0
2017-Dec-02 23:27N 58°60' E 005°40'0 0.0
2017-Dec-02 23:00N 58°60' E 005°40'0 0.0
2017-Dec-02 22:30N 58°60' E 005°40'0 0.0
2017-Dec-02 22:00N 58°60' E 005°40'0 0.0
2017-Dec-02 21:30N 58°60' E 005°40'0 0.0
2017-Dec-02 21:00N 58°60' E 005°40'0 0.0
2017-Dec-02 20:30N 58°60' E 005°40'0 0.0
2017-Dec-02 20:00N 58°60' E 005°40'0 0.0
2017-Dec-02 19:30N 58°60' E 005°40'0 0.0
2017-Dec-02 19:00N 58°60' E 005°40'0 0.0
2017-Dec-02 18:30N 58°60' E 005°40'0 0.0
2017-Dec-02 18:00N 58°60' E 005°40'0 0.0
2017-Dec-02 17:30N 58°60' E 005°40'0 0.0
2017-Dec-02 17:00N 58°60' E 005°40'0 0.0
2017-Dec-02 16:30N 58°60' E 005°40'0 0.0
2017-Dec-02 16:00N 58°60' E 005°40'0 0.0
2017-Dec-02 15:30N 58°60' E 005°40'0 0.0
2017-Dec-02 15:00N 58°60' E 005°40'0 0.0
2017-Dec-02 14:30N 58°60' E 005°40'0 0.0
2017-Dec-02 14:00N 58°60' E 005°40'0 0.0
2017-Dec-02 13:30N 58°60' E 005°40'0 0.0
2017-Dec-02 13:00N 58°60' E 005°40'0 0.0
2017-Dec-02 12:30N 58°60' E 005°40'0 0.0
2017-Dec-02 12:00N 58°60' E 005°40'0 0.0
2017-Dec-02 11:30N 58°60' E 005°40'0 0.0
2017-Dec-02 11:00N 58°60' E 005°40'0 0.0
2017-Dec-02 10:30N 58°60' E 005°40'0 0.0
2017-Dec-02 10:00N 58°60' E 005°40'0 0.0
2017-Dec-02 09:30N 58°60' E 005°40'0 0.0
2017-Dec-02 09:00N 58°60' E 005°40'0 0.0
2017-Dec-02 08:30N 58°60' E 005°40'0 0.0
2017-Dec-02 08:00N 58°60' E 005°40'0 0.1
2017-Dec-02 07:30N 58°60' E 005°40'4 8.2
2017-Dec-02 07:00N 59°03' E 005°35'5 9.5
2017-Dec-02 06:30N 59°06' E 005°28'511.0
2017-Dec-02 06:00N 59°04' E 005°18'611.2
2017-Dec-02 05:30N 59°02' E 005°08'611.4
2017-Dec-02 05:00N 58°60' E 004°58'611.4
2017-Dec-02 04:30N 58°58' E 004°47'4 0.1
2017-Nov-30 18:24N 59°01' E 004°52'4 9.8
2017-Nov-30 18:00N 59°02' E 004°60'5 9.7
2017-Nov-30 17:30N 59°03' E 005°09'510.0
2017-Nov-30 17:00N 59°05' E 005°18'611.3
2017-Nov-30 16:31N 59°07' E 005°28'611.4
2017-Nov-30 16:00N 59°03' E 005°35'4 7.4
2017-Nov-30 15:28N 58°60' E 005°40'0 0.0
2017-Nov-30 14:58N 58°60' E 005°40'0 0.0
2017-Nov-30 14:28N 58°60' E 005°40'0 0.0
2017-Nov-30 13:58N 58°60' E 005°40'0 0.0
2017-Nov-30 13:28N 58°60' E 005°40'0 0.0
2017-Nov-30 12:58N 58°60' E 005°40'0 0.0
2017-Nov-30 12:28N 58°60' E 005°40'0 0.0
2017-Nov-30 11:58N 58°60' E 005°40'0 0.0
2017-Nov-30 11:28N 58°60' E 005°40'0 0.0
2017-Nov-30 10:58N 58°60' E 005°40'0 0.0
2017-Nov-30 10:28N 58°60' E 005°40'0 0.0
2017-Nov-30 09:58N 58°60' E 005°40'0 0.0
2017-Nov-30 09:28N 58°60' E 005°40'0 0.0
2017-Nov-30 08:58N 58°60' E 005°40'0 0.0
2017-Nov-30 08:28N 58°60' E 005°40'0 0.0
2017-Nov-30 07:58N 58°60' E 005°40'0 0.1
2017-Nov-30 07:30N 59°00' E 005°40'3 5.7
2017-Nov-30 07:01N 59°02' E 005°36'4 8.0
2017-Nov-30 06:30N 59°05' E 005°32'4 7.2
2017-Nov-30 06:00N 59°05' E 005°25'5 9.6
2017-Nov-30 05:30N 59°03' E 005°16'4 8.4
2017-Nov-30 05:01N 59°03' E 005°08'4 8.4
2017-Nov-30 04:31N 59°04' E 004°60'4 8.6
2017-Nov-30 04:00N 59°04' E 004°51'4 8.5
2017-Nov-30 03:30N 59°05' E 004°43'  
Track history (hours):
 
Tides and Currents Weather Stations Pressure Air Temp Water Temp Dewpoint Dewpoint Depression Visibility Wind Speed Wind Dir Waves Ship Positions

Normand Skude

Last reported at 2017-Dec-09 21:45 UTC. Time now 2017-Dec-13 07:08 UTC.
Position N 59°05' E 004°45'.

Length 87 m; draft 5.8 m.

Type: Cargo ship. MMSI: 257982000.

Date/timePositionNaut miles runAvg speedWind from/ knotsBaromVisibWave heightAir tempDewpointWater temp
2017-Dec-09 21:45N 59°05' E 004°45'3 7.7
2017-Dec-09 21:25N 59°04' E 004°50'3 7.6
2017-Dec-09 21:00N 59°04' E 004°56'4 8.3
2017-Dec-09 20:30N 59°04' E 005°04'4 8.3
2017-Dec-09 20:00N 59°04' E 005°12'5 8.9
2017-Dec-09 19:30N 59°06' E 005°20'5 9.3
2017-Dec-09 19:00N 59°07' E 005°29'510.1
2017-Dec-09 18:30N 59°03' E 005°35'4 7.6
2017-Dec-09 18:00N 58°60' E 005°40'0 0.0
2017-Dec-09 17:28N 58°60' E 005°40'0 0.0
2017-Dec-09 16:58N 58°60' E 005°40'0 0.0
2017-Dec-09 16:28N 58°60' E 005°40'0 0.0
2017-Dec-09 15:58N 58°60' E 005°40'0 0.0
2017-Dec-09 15:28N 58°60' E 005°40'0 0.0
2017-Dec-09 14:58N 58°60' E 005°40'0 0.0
2017-Dec-09 14:28N 58°60' E 005°40'0 0.0
2017-Dec-09 13:58N 58°60' E 005°40'0 0.0
2017-Dec-09 13:28N 58°60' E 005°40'0 0.0
2017-Dec-09 12:58N 58°60' E 005°40'0 0.0
2017-Dec-09 12:28N 58°60' E 005°40'0 0.0
2017-Dec-09 11:58N 58°60' E 005°40'0 0.0
2017-Dec-09 11:28N 58°60' E 005°40'0 0.0
2017-Dec-09 10:58N 58°60' E 005°40'0 0.0
2017-Dec-09 10:28N 58°60' E 005°40'0 0.0
2017-Dec-09 09:58N 58°60' E 005°40'0 0.0
2017-Dec-09 09:28N 58°60' E 005°40'0 0.0
2017-Dec-09 08:58N 58°60' E 005°40'0 0.0
2017-Dec-09 08:28N 58°60' E 005°40'0 0.0
2017-Dec-09 07:58N 58°60' E 005°40'0 0.0
2017-Dec-09 07:28N 58°60' E 005°40'0 0.0
2017-Dec-09 06:58N 58°60' E 005°40'0 0.0
2017-Dec-09 06:28N 58°60' E 005°40'0 0.0
2017-Dec-09 05:58N 58°60' E 005°40'0 0.0
2017-Dec-09 05:28N 58°60' E 005°40'0 0.0
2017-Dec-09 04:58N 58°60' E 005°40'0 0.0
2017-Dec-09 04:28N 58°60' E 005°40'0 0.0
2017-Dec-09 03:58N 58°60' E 005°40'0 0.0
2017-Dec-09 03:28N 58°60' E 005°40'0 0.0
2017-Dec-09 02:58N 58°60' E 005°40'0 0.0
2017-Dec-09 02:28N 58°60' E 005°40'0 0.0
2017-Dec-09 01:58N 58°60' E 005°40'0 0.0
2017-Dec-09 01:28N 58°60' E 005°40'0 0.0
2017-Dec-09 00:58N 58°60' E 005°40'0 0.0
2017-Dec-09 00:28N 58°60' E 005°40'0 0.0
2017-Dec-08 23:58N 58°60' E 005°40'0 0.0
2017-Dec-08 23:28N 58°60' E 005°40'0 0.0
2017-Dec-08 22:58N 58°60' E 005°40'0 0.0
2017-Dec-08 22:28N 58°60' E 005°40'0 0.0
2017-Dec-08 21:58N 58°60' E 005°40'0 0.0
2017-Dec-08 21:28N 58°60' E 005°40'0 0.0
2017-Dec-08 20:58N 58°60' E 005°40'0 0.0
2017-Dec-08 20:28N 58°60' E 005°40'0 0.0
2017-Dec-08 19:58N 58°60' E 005°40'0 0.0
2017-Dec-08 19:28N 58°60' E 005°40'0 0.0
2017-Dec-08 18:58N 58°60' E 005°40'0 0.0
2017-Dec-08 18:28N 58°60' E 005°40'0 0.0
2017-Dec-08 17:58N 58°60' E 005°40'0 0.0
2017-Dec-08 17:28N 58°60' E 005°40'0 0.0
2017-Dec-08 16:58N 58°60' E 005°40'0 0.0
2017-Dec-08 16:28N 58°60' E 005°40'0 0.0
2017-Dec-08 15:58N 58°60' E 005°40'0 0.0
2017-Dec-08 15:28N 58°60' E 005°40'0 0.0
2017-Dec-08 14:58N 58°60' E 005°40'0 0.0
2017-Dec-08 14:28N 58°60' E 005°40'0 0.0
2017-Dec-08 13:58N 58°60' E 005°40'0 0.0
2017-Dec-08 13:28N 58°60' E 005°40'0 0.0
2017-Dec-08 12:58N 58°60' E 005°40'0 0.0
2017-Dec-08 12:28N 58°60' E 005°40'0 0.0
2017-Dec-08 11:58N 58°60' E 005°40'0 0.0
2017-Dec-08 11:28N 58°60' E 005°40'0 0.0
2017-Dec-08 10:58N 58°60' E 005°40'0 0.0
2017-Dec-08 10:28N 58°60' E 005°40'0 0.0
2017-Dec-08 09:58N 58°60' E 005°40'0 0.0
2017-Dec-08 09:28N 58°60' E 005°40'0 0.0
2017-Dec-08 08:58N 58°60' E 005°40'0 0.0
2017-Dec-08 08:28N 58°60' E 005°40'0 0.0
2017-Dec-08 07:58N 58°60' E 005°40'0 0.0
2017-Dec-08 07:28N 58°60' E 005°40'0 0.0
2017-Dec-08 06:58N 58°60' E 005°40'0 0.0
2017-Dec-08 06:28N 58°60' E 005°40'0 0.0
2017-Dec-08 05:58N 58°60' E 005°40'0 0.0
2017-Dec-08 05:28N 58°60' E 005°40'0 0.0
2017-Dec-08 04:58N 58°60' E 005°40'0 0.0
2017-Dec-08 04:28N 58°60' E 005°40'0 0.0
2017-Dec-08 03:58N 58°60' E 005°40'0 0.0
2017-Dec-08 03:28N 58°60' E 005°40'0 0.0
2017-Dec-08 02:58N 58°60' E 005°40'0 0.0
2017-Dec-08 02:28N 58°60' E 005°40'0 0.0
2017-Dec-08 01:58N 58°60' E 005°40'0 0.0
2017-Dec-08 01:28N 58°60' E 005°40'0 0.0
2017-Dec-08 00:58N 58°60' E 005°40'0 0.0
2017-Dec-08 00:28N 58°60' E 005°40'0 0.0
2017-Dec-07 23:58N 58°60' E 005°40'0 0.0
2017-Dec-07 23:28N 58°60' E 005°40'0 0.0
2017-Dec-07 22:58N 58°60' E 005°40'0 0.0
2017-Dec-07 22:28N 58°60' E 005°40'0 0.0
2017-Dec-07 21:58N 58°60' E 005°40'0 0.0
2017-Dec-07 21:28N 58°60' E 005°40'0 0.0
2017-Dec-07 20:58N 58°60' E 005°40'0 0.0
2017-Dec-07 20:28N 58°60' E 005°40'0 0.0
2017-Dec-07 19:58N 58°60' E 005°40'0 0.0
2017-Dec-07 19:28N 58°60' E 005°40'0 0.0
2017-Dec-07 18:58N 58°60' E 005°40'0 0.0
2017-Dec-07 18:28N 58°60' E 005°40'0 0.0
2017-Dec-07 17:58N 58°60' E 005°40'0 0.0
2017-Dec-07 17:28N 58°60' E 005°40'0 0.0
2017-Dec-07 16:58N 58°60' E 005°40'0 0.0
2017-Dec-07 16:28N 58°60' E 005°40'0 0.0
2017-Dec-07 15:58N 58°60' E 005°40'0 0.0
2017-Dec-07 15:28N 58°60' E 005°40'0 0.0
2017-Dec-07 14:58N 58°60' E 005°40'0 0.0
2017-Dec-07 14:28N 58°60' E 005°40'0 0.0
2017-Dec-07 13:58N 58°60' E 005°40'0 0.0
2017-Dec-07 13:28N 58°60' E 005°40'0 0.0
2017-Dec-07 12:58N 58°60' E 005°40'0 0.0
2017-Dec-07 12:28N 58°60' E 005°40'0 0.0
2017-Dec-07 11:58N 58°60' E 005°40'0 0.0
2017-Dec-07 11:28N 58°60' E 005°40'0 0.0
2017-Dec-07 10:58N 58°60' E 005°40'0 0.0
2017-Dec-07 10:28N 58°60' E 005°40'0 0.0
2017-Dec-07 09:58N 58°60' E 005°40'0 0.0
2017-Dec-07 09:28N 58°60' E 005°40'0 0.0
2017-Dec-07 08:58N 58°60' E 005°40'0 0.0
2017-Dec-07 08:28N 58°60' E 005°40'0 0.0
2017-Dec-07 07:58N 58°60' E 005°40'0 0.0
2017-Dec-07 07:30N 58°60' E 005°40'2 4.1
2017-Dec-07 07:00N 59°02' E 005°38'3 6.4
2017-Dec-07 06:30N 59°04' E 005°33'3 5.3
2017-Dec-07 06:00N 59°06' E 005°30'3 6.2
2017-Dec-07 05:30N 59°05' E 005°24'3 6.2
2017-Dec-07 05:00N 59°04' E 005°19'3 6.5
2017-Dec-07 04:31N 59°03' E 005°13'4 7.7
2017-Dec-07 04:00N 59°03' E 005°05'4 8.1
2017-Dec-07 03:30N 59°03' E 004°58'4 8.1
2017-Dec-07 02:59N 59°04' E 004°50'  
2017-Dec-04 10:30N 58°60' E 005°40'0 0.0
2017-Dec-04 10:00N 58°60' E 005°40'0 0.0
2017-Dec-04 09:30N 58°60' E 005°40'0 0.0
2017-Dec-04 09:00N 58°60' E 005°40'0 0.0
2017-Dec-04 08:30N 58°60' E 005°40'0 0.0
2017-Dec-04 08:00N 58°60' E 005°40'0 0.0
2017-Dec-04 07:30N 58°60' E 005°40'0 0.0
2017-Dec-04 07:00N 58°60' E 005°40'0 0.0
2017-Dec-04 06:30N 58°60' E 005°40'0 0.0
2017-Dec-04 06:00N 58°60' E 005°40'0 0.0
2017-Dec-04 05:30N 58°60' E 005°40'0 0.0
2017-Dec-04 05:00N 58°60' E 005°40'0 0.0
2017-Dec-04 04:30N 58°60' E 005°40'0 0.0
2017-Dec-04 04:00N 58°60' E 005°40'0 0.0
2017-Dec-04 03:30N 58°60' E 005°40'0 0.0
2017-Dec-04 03:00N 58°60' E 005°40'0 0.0
2017-Dec-04 02:30N 58°60' E 005°40'0 0.0
2017-Dec-04 02:00N 58°60' E 005°40'0 0.0
2017-Dec-04 01:30N 58°60' E 005°40'0 0.0
2017-Dec-04 01:00N 58°60' E 005°40'0 0.0
2017-Dec-04 00:30N 58°60' E 005°40'0 0.0
2017-Dec-04 00:00N 58°60' E 005°40'0 0.0
2017-Dec-03 23:30N 58°60' E 005°40'0 0.0
2017-Dec-03 23:00N 58°60' E 005°40'0 0.0
2017-Dec-03 22:30N 58°60' E 005°40'0 0.0
2017-Dec-03 22:00N 58°60' E 005°40'0 0.0
2017-Dec-03 21:30N 58°60' E 005°40'0 0.0
2017-Dec-03 21:00N 58°60' E 005°40'0 0.0
2017-Dec-03 20:30N 58°60' E 005°40'0 0.0
2017-Dec-03 20:00N 58°60' E 005°40'0 0.0
2017-Dec-03 19:30N 58°60' E 005°40'0 0.0
2017-Dec-03 19:00N 58°60' E 005°40'0 0.0
2017-Dec-03 18:30N 58°60' E 005°40'0 0.0
2017-Dec-03 18:00N 58°60' E 005°40'0 0.0
2017-Dec-03 17:30N 58°60' E 005°40'0 0.0
2017-Dec-03 17:00N 58°60' E 005°40'0 0.0
2017-Dec-03 16:30N 58°60' E 005°40'0 0.0
2017-Dec-03 16:00N 58°60' E 005°40'0 0.0
2017-Dec-03 15:30N 58°60' E 005°40'0 0.0
2017-Dec-03 15:00N 58°60' E 005°40'0 0.0
2017-Dec-03 14:30N 58°60' E 005°40'0 0.0
2017-Dec-03 13:57N 58°60' E 005°40'0 0.0
2017-Dec-03 13:30N 58°60' E 005°40'0 0.0
2017-Dec-03 13:00N 58°60' E 005°40'0 0.0
2017-Dec-03 12:30N 58°60' E 005°40'0 0.0
2017-Dec-03 12:00N 58°60' E 005°40'0 0.0
2017-Dec-03 11:30N 58°60' E 005°40'0 0.0
2017-Dec-03 11:00N 58°60' E 005°40'0 0.0
2017-Dec-03 10:30N 58°60' E 005°40'0 0.0
2017-Dec-03 10:00N 58°60' E 005°40'0 0.0
2017-Dec-03 09:30N 58°60' E 005°40'0 0.0
2017-Dec-03 09:00N 58°60' E 005°40'0 0.0
2017-Dec-03 08:30N 58°60' E 005°40'0 0.0
2017-Dec-03 08:00N 58°60' E 005°40'0 0.0
2017-Dec-03 07:30N 58°60' E 005°40'0 0.0
2017-Dec-03 07:00N 58°60' E 005°40'0 0.0
2017-Dec-03 06:30N 58°60' E 005°40'0 0.0
2017-Dec-03 06:00N 58°60' E 005°40'0 0.0
2017-Dec-03 05:30N 58°60' E 005°40'0 0.0
2017-Dec-03 05:00N 58°60' E 005°40'0 0.0
2017-Dec-03 04:30N 58°60' E 005°40'0 0.0
2017-Dec-03 04:00N 58°60' E 005°40'0 0.0
2017-Dec-03 03:30N 58°60' E 005°40'0 0.0
2017-Dec-03 03:00N 58°60' E 005°40'0 0.0
2017-Dec-03 02:30N 58°60' E 005°40'0 0.0
2017-Dec-03 02:00N 58°60' E 005°40'0 0.0
2017-Dec-03 01:30N 58°60' E 005°40'0 0.0
2017-Dec-03 01:00N 58°60' E 005°40'0 0.0
2017-Dec-03 00:30N 58°60' E 005°40'0 0.0
2017-Dec-03 00:00N 58°60' E 005°40'0 0.0
2017-Dec-02 23:27N 58°60' E 005°40'0 0.0
2017-Dec-02 23:00N 58°60' E 005°40'0 0.0
2017-Dec-02 22:30N 58°60' E 005°40'0 0.0
2017-Dec-02 22:00N 58°60' E 005°40'0 0.0
2017-Dec-02 21:30N 58°60' E 005°40'0 0.0
2017-Dec-02 21:00N 58°60' E 005°40'0 0.0
2017-Dec-02 20:30N 58°60' E 005°40'0 0.0
2017-Dec-02 20:00N 58°60' E 005°40'0 0.0
2017-Dec-02 19:30N 58°60' E 005°40'0 0.0
2017-Dec-02 19:00N 58°60' E 005°40'0 0.0
2017-Dec-02 18:30N 58°60' E 005°40'0 0.0
2017-Dec-02 18:00N 58°60' E 005°40'0 0.0
2017-Dec-02 17:30N 58°60' E 005°40'0 0.0
2017-Dec-02 17:00N 58°60' E 005°40'0 0.0
2017-Dec-02 16:30N 58°60' E 005°40'0 0.0
2017-Dec-02 16:00N 58°60' E 005°40'0 0.0
2017-Dec-02 15:30N 58°60' E 005°40'0 0.0
2017-Dec-02 15:00N 58°60' E 005°40'0 0.0
2017-Dec-02 14:30N 58°60' E 005°40'0 0.0
2017-Dec-02 14:00N 58°60' E 005°40'0 0.0
2017-Dec-02 13:30N 58°60' E 005°40'0 0.0
2017-Dec-02 13:00N 58°60' E 005°40'0 0.0
2017-Dec-02 12:30N 58°60' E 005°40'0 0.0
2017-Dec-02 12:00N 58°60' E 005°40'0 0.0
2017-Dec-02 11:30N 58°60' E 005°40'0 0.0
2017-Dec-02 11:00N 58°60' E 005°40'0 0.0
2017-Dec-02 10:30N 58°60' E 005°40'0 0.0
2017-Dec-02 10:00N 58°60' E 005°40'0 0.0
2017-Dec-02 09:30N 58°60' E 005°40'0 0.0
2017-Dec-02 09:00N 58°60' E 005°40'0 0.0
2017-Dec-02 08:30N 58°60' E 005°40'0 0.0
2017-Dec-02 08:00N 58°60' E 005°40'0 0.1
2017-Dec-02 07:30N 58°60' E 005°40'4 8.2
2017-Dec-02 07:00N 59°03' E 005°35'5 9.5
2017-Dec-02 06:30N 59°06' E 005°28'511.0
2017-Dec-02 06:00N 59°04' E 005°18'611.2
2017-Dec-02 05:30N 59°02' E 005°08'611.4
2017-Dec-02 05:00N 58°60' E 004°58'611.4
2017-Dec-02 04:30N 58°58' E 004°47'4 0.1
2017-Nov-30 18:24N 59°01' E 004°52'4 9.8
2017-Nov-30 18:00N 59°02' E 004°60'5 9.7
2017-Nov-30 17:30N 59°03' E 005°09'510.0
2017-Nov-30 17:00N 59°05' E 005°18'611.3
2017-Nov-30 16:31N 59°07' E 005°28'611.4
2017-Nov-30 16:00N 59°03' E 005°35'4 7.4
2017-Nov-30 15:28N 58°60' E 005°40'0 0.0
2017-Nov-30 14:58N 58°60' E 005°40'0 0.0
2017-Nov-30 14:28N 58°60' E 005°40'0 0.0
2017-Nov-30 13:58N 58°60' E 005°40'0 0.0
2017-Nov-30 13:28N 58°60' E 005°40'0 0.0
2017-Nov-30 12:58N 58°60' E 005°40'0 0.0
2017-Nov-30 12:28N 58°60' E 005°40'0 0.0
2017-Nov-30 11:58N 58°60' E 005°40'0 0.0
2017-Nov-30 11:28N 58°60' E 005°40'0 0.0
2017-Nov-30 10:58N 58°60' E 005°40'0 0.0
2017-Nov-30 10:28N 58°60' E 005°40'0 0.0
2017-Nov-30 09:58N 58°60' E 005°40'0 0.0
2017-Nov-30 09:28N 58°60' E 005°40'0 0.0
2017-Nov-30 08:58N 58°60' E 005°40'0 0.0
2017-Nov-30 08:28N 58°60' E 005°40'0 0.0
2017-Nov-30 07:58N 58°60' E 005°40'0 0.1
2017-Nov-30 07:30N 59°00' E 005°40'3 5.7
2017-Nov-30 07:01N 59°02' E 005°36'4 8.0
2017-Nov-30 06:30N 59°05' E 005°32'4 7.2
2017-Nov-30 06:00N 59°05' E 005°25'5 9.6
2017-Nov-30 05:30N 59°03' E 005°16'4 8.4
2017-Nov-30 05:01N 59°03' E 005°08'4 8.4
2017-Nov-30 04:31N 59°04' E 004°60'4 8.6
2017-Nov-30 04:00N 59°04' E 004°51'4 8.5
2017-Nov-30 03:30N 59°05' E 004°43'  

Dump ship's entire track history